Time;durP1;ratioP1;P1;durP2;ratioP2;P2;SDS_P1;SDS_P2;PMS_P1;PMS_P2;Temp;Humidity;BMP_temperature;BMP_pressure;BME280_temperature;BME280_humidity;BME280_pressure;Samples;Min_cycle;Max_cycle;Signal;HPM_P1;HPM_P2
2024/03/17 00:02:04;;;;;;;34.15;32.53;;;15.30;99.90;;;;;;5053106;28;20041;-79
2024/03/17 00:04:31;;;;;;;31.23;29.77;;;15.10;99.90;;;;;;5053496;28;20055;-79
2024/03/17 00:06:57;;;;;;;38.15;36.33;;;15.00;99.90;;;;;;5053791;28;20470;-79
2024/03/17 00:09:24;;;;;;;33.83;32.22;;;15.00;99.90;;;;;;5053217;28;20064;-79
2024/03/17 00:11:50;;;;;;;23.10;22.02;;;15.00;99.90;;;;;;5053677;28;20041;-79
2024/03/17 00:14:18;;;;;;;40.88;38.97;;;15.10;99.90;;;;;;5068770;28;20033;-79
2024/03/17 00:16:44;;;;;;;48.97;46.67;;;15.10;99.90;;;;;;5053191;28;20040;-79
2024/03/17 00:19:10;;;;;;;25.83;24.60;;;15.20;99.90;;;;;;5053473;28;20033;-79
2024/03/17 00:21:36;;;;;;;27.23;25.98;;;15.30;99.90;;;;;;5052903;28;20032;-79
2024/03/17 00:24:03;;;;;;;26.15;24.95;;;15.40;99.90;;;;;;5067652;28;20033;-79
2024/03/17 00:26:29;;;;;;;23.80;22.70;;;15.40;99.90;;;;;;5053302;28;20044;-79
2024/03/17 00:28:55;;;;;;;21.45;20.45;;;15.40;99.90;;;;;;5068201;28;20063;-79
2024/03/17 00:31:23;;;;;;;22.85;21.80;;;15.40;99.90;;;;;;5052490;28;20405;-79
2024/03/17 00:33:52;;;;;;;28.80;26.98;;;15.50;99.90;;;;;;5052901;28;20041;-79
2024/03/17 00:36:18;;;;;;;23.67;22.58;;;15.40;99.90;;;;;;5052996;28;20037;-79
2024/03/17 00:38:44;;;;;;;22.30;21.30;;;15.40;99.90;;;;;;5053452;28;20044;-79
2024/03/17 00:41:10;;;;;;;25.40;24.23;;;15.50;99.90;;;;;;5052921;28;20509;-79
2024/03/17 00:43:37;;;;;;;25.00;23.83;;;15.50;99.90;;;;;;5052749;28;20045;-79
2024/03/17 00:46:03;;;;;;;33.90;32.20;;;15.60;99.90;;;;;;5052442;28;20135;-79
2024/03/17 00:48:30;;;;;;;32.90;31.35;;;15.60;99.90;;;;;;5052546;28;20044;-79
2024/03/17 00:50:56;;;;;;;26.30;25.10;;;15.50;99.90;;;;;;5052470;28;20044;-71
2024/03/17 00:53:22;;;;;;;31.73;30.25;;;15.50;99.90;;;;;;5052984;28;20036;-72
2024/03/17 00:55:52;;;;;;;134.00;127.45;;;15.40;99.90;;;;;;5067688;28;20037;-72
2024/03/17 00:58:20;;;;;;;66.78;62.95;;;15.10;99.90;;;;;;5052963;28;20044;-71
2024/03/17 01:00:49;;;;;;;42.55;40.53;;;14.90;99.90;;;;;;5052032;28;20036;-72
2024/03/17 01:03:16;;;;;;;36.78;35.05;;;14.70;99.90;;;;;;5052529;28;20033;-72
2024/03/17 01:05:44;;;;;;;30.23;28.83;;;14.50;99.90;;;;;;5052342;28;20029;-72
2024/03/17 01:08:11;;;;;;;37.25;35.50;;;14.50;99.90;;;;;;5067875;28;20060;-71
2024/03/17 01:10:38;;;;;;;41.30;39.38;;;14.60;99.90;;;;;;5052435;28;20028;-72
2024/03/17 01:13:08;;;;;;;47.15;44.92;;;14.70;99.90;;;;;;5052784;28;20045;-72
2024/03/17 01:15:38;;;;;;;33.90;32.30;;;14.60;99.90;;;;;;5051925;28;20037;-72
2024/03/17 01:18:04;;;;;;;34.70;33.10;;;14.50;99.90;;;;;;5052504;28;20040;-72
2024/03/17 01:20:31;;;;;;;20.83;19.83;;;14.70;99.90;;;;;;5052380;28;20486;-72
2024/03/17 01:22:57;;;;;;;23.27;22.17;;;14.70;99.90;;;;;;5052520;28;20037;-72
2024/03/17 01:25:25;;;;;;;57.67;54.95;;;14.80;99.90;;;;;;5051886;28;20037;-72
2024/03/17 01:27:52;;;;;;;32.22;30.52;;;14.90;99.90;;;;;;5052340;28;20052;-72
2024/03/17 01:30:19;;;;;;;39.10;37.28;;;14.90;99.90;;;;;;5051188;28;20029;-71
2024/03/17 01:32:46;;;;;;;29.02;27.67;;;14.90;99.90;;;;;;5052783;28;20052;-71
2024/03/17 01:35:12;;;;;;;20.10;19.20;;;14.80;99.90;;;;;;5051638;28;20032;-72
2024/03/17 01:37:39;;;;;;;20.48;19.55;;;14.90;99.90;;;;;;5052627;28;20048;-72
2024/03/17 01:40:08;;;;;;;26.27;25.08;;;14.90;99.90;;;;;;5052222;28;20041;-72
2024/03/17 01:42:34;;;;;;;23.10;22.02;;;14.70;99.90;;;;;;5052056;28;20115;-71
2024/03/17 01:45:00;;;;;;;23.90;22.80;;;14.60;99.90;;;;;;5051777;28;20486;-71
2024/03/17 01:47:27;;;;;;;23.80;22.70;;;14.50;99.90;;;;;;5050341;28;20041;-71
2024/03/17 01:49:53;;;;;;;22.17;21.15;;;14.50;99.90;;;;;;5052055;28;20053;-71
2024/03/17 01:52:19;;;;;;;50.53;48.15;;;14.50;99.90;;;;;;5051930;28;20033;-79
2024/03/17 01:54:46;;;;;;;44.80;42.55;;;14.50;99.90;;;;;;5051393;28;20029;-79
2024/03/17 01:57:13;;;;;;;23.92;22.80;;;14.40;99.90;;;;;;5052044;28;20053;-80
2024/03/17 01:59:39;;;;;;;49.60;47.22;;;14.20;99.90;;;;;;5051553;28;20037;-79
2024/03/17 02:02:06;;;;;;;36.17;34.42;;;14.10;99.90;;;;;;5051402;28;20048;-79
2024/03/17 02:04:32;;;;;;;35.33;33.45;;;14.00;99.90;;;;;;5067493;28;20528;-79
2024/03/17 02:06:58;;;;;;;25.17;23.88;;;14.00;99.90;;;;;;5052413;28;20029;-79
2024/03/17 02:09:25;;;;;;;27.27;25.85;;;13.90;99.90;;;;;;5032095;28;20486;-79
2024/03/17 02:11:51;;;;;;;26.38;25.08;;;13.80;99.90;;;;;;5045725;28;20428;-79
2024/03/17 02:14:17;;;;;;;23.73;22.55;;;13.80;99.90;;;;;;5051708;28;20041;-79
2024/03/17 02:16:43;;;;;;;25.77;24.48;;;13.90;99.90;;;;;;5051263;28;20044;-79
2024/03/17 02:19:09;;;;;;;71.82;67.95;;;13.90;99.90;;;;;;5052107;28;20025;-79
2024/03/17 02:21:37;;;;;;;28.45;26.88;;;13.80;99.90;;;;;;5051502;28;20390;-78
2024/03/17 02:24:03;;;;;;;62.35;59.40;;;13.90;99.90;;;;;;5051715;28;20517;-79
2024/03/17 02:26:30;;;;;;;101.07;96.30;;;13.90;99.90;;;;;;5043440;28;20041;-79
2024/03/17 02:28:56;;;;;;;109.95;104.60;;;13.90;99.90;;;;;;5051407;28;20029;-78
2024/03/17 02:31:22;;;;;;;82.43;78.53;;;13.90;99.90;;;;;;5050880;28;20048;-79
2024/03/17 02:33:48;;;;;;;49.47;47.15;;;14.00;99.90;;;;;;5051704;28;20040;-80
2024/03/17 02:36:15;;;;;;;24.85;23.70;;;14.00;99.90;;;;;;5066809;28;20033;-79
2024/03/17 02:41:26;;;;;;;27.45;26.15;;;14.20;99.90;;;;;;5057962;28;20052;-79
2024/03/17 02:43:52;;;;;;;28.95;27.55;;;14.40;99.90;;;;;;5034928;28;20053;-79
2024/03/17 02:46:19;;;;;;;30.67;29.25;;;14.30;99.90;;;;;;5041578;28;20037;-79
2024/03/17 02:48:52;;;;;;;29.13;27.77;;;14.40;99.90;;;;;;5055094;28;20049;-79
2024/03/17 02:51:20;;;;;;;28.27;26.95;;;14.40;99.90;;;;;;5055077;28;20021;-79
2024/03/17 02:53:46;;;;;;;31.23;29.77;;;14.50;99.90;;;;;;5055470;28;20473;-79
2024/03/17 02:56:13;;;;;;;36.78;34.90;;;14.50;99.90;;;;;;5054649;28;20040;-79
2024/03/17 02:58:39;;;;;;;30.27;28.88;;;14.40;99.90;;;;;;5054857;28;20517;-79
2024/03/17 03:01:05;;;;;;;34.17;32.58;;;14.40;99.90;;;;;;5053472;28;20041;-72
2024/03/17 03:03:32;;;;;;;37.30;35.55;;;14.20;99.90;;;;;;5050203;28;20025;-72
2024/03/17 03:06:00;;;;;;;34.80;33.15;;;14.40;99.90;;;;;;5048119;28;20033;-71
2024/03/17 03:08:27;;;;;;;28.25;26.95;;;14.30;99.90;;;;;;5053855;28;20071;-72
2024/03/17 03:10:53;;;;;;;57.47;54.78;;;14.20;99.90;;;;;;5053861;28;20041;-72
2024/03/17 03:13:19;;;;;;;50.92;48.53;;;14.10;99.90;;;;;;5053168;28;20044;-72
2024/03/17 03:15:47;;;;;;;23.40;22.30;;;14.00;99.90;;;;;;5052237;28;20037;-72
2024/03/17 03:18:14;;;;;;;27.10;25.67;;;14.10;99.90;;;;;;5053471;28;20041;-71
2024/03/17 03:20:40;;;;;;;43.35;41.33;;;14.10;99.90;;;;;;5053121;28;20091;-72
2024/03/17 03:23:06;;;;;;;23.58;22.48;;;14.00;99.90;;;;;;5053259;28;20409;-72
2024/03/17 03:25:32;;;;;;;31.83;30.33;;;14.10;99.90;;;;;;5053005;28;20037;-72
2024/03/17 03:27:59;;;;;;;23.48;22.38;;;14.20;99.90;;;;;;5052945;28;20028;-72
2024/03/17 03:30:25;;;;;;;51.17;48.45;;;14.20;99.90;;;;;;5052064;28;20482;-72
2024/03/17 03:32:52;;;;;;;90.68;86.28;;;14.00;99.90;;;;;;5053195;28;20040;-72
2024/03/17 03:35:18;;;;;;;48.17;45.90;;;13.90;99.90;;;;;;5052756;28;20020;-72
2024/03/17 03:37:44;;;;;;;29.00;27.65;;;13.90;99.90;;;;;;5054090;28;20052;-72
2024/03/17 03:40:17;;;;;;;30.23;28.83;;;14.00;99.90;;;;;;5054532;28;20025;-71
2024/03/17 03:42:43;;;;;;;21.83;20.80;;;14.20;99.90;;;;;;5034246;28;20033;-72
2024/03/17 03:45:13;;;;;;;25.90;24.67;;;14.30;99.90;;;;;;5045891;28;20056;-72
2024/03/17 03:47:42;;;;;;;29.77;28.38;;;14.20;99.90;;;;;;5054701;28;20474;-72
2024/03/17 03:50:11;;;;;;;43.60;41.50;;;14.20;99.90;;;;;;5054262;28;20049;-71
2024/03/17 03:52:37;;;;;;;33.80;32.17;;;14.10;99.90;;;;;;5054321;28;20108;-72
2024/03/17 03:55:10;;;;;;;31.25;29.75;;;13.90;99.90;;;;;;5053698;28;20029;-71
2024/03/17 03:57:38;;;;;;;37.47;35.70;;;13.90;99.90;;;;;;5069043;28;20025;-71
2024/03/17 04:00:14;;;;;;;28.70;27.30;;;14.10;99.90;;;;;;5053499;28;20531;-72
2024/03/17 04:02:41;;;;;;;23.27;22.02;;;13.90;99.90;;;;;;5053901;28;20041;-79
2024/03/17 04:05:07;;;;;;;28.23;26.88;;;13.90;99.90;;;;;;5053720;28;20032;-79
2024/03/17 04:07:34;;;;;;;30.50;29.00;;;13.90;99.90;;;;;;5067413;28;20037;-79
2024/03/17 04:10:00;;;;;;;40.75;38.78;;;13.80;99.90;;;;;;5063490;28;20466;-79
2024/03/17 04:12:27;;;;;;;44.35;42.20;;;13.80;99.90;;;;;;5055817;28;20377;-78
2024/03/17 04:14:55;;;;;;;62.25;59.25;;;13.80;99.90;;;;;;5053942;28;20029;-79
2024/03/17 04:17:21;;;;;;;59.13;56.25;;;13.80;99.90;;;;;;5062036;28;20393;-79
2024/03/17 04:19:50;;;;;;;57.28;54.50;;;13.80;99.90;;;;;;5074271;28;20044;-79
2024/03/17 04:22:17;;;;;;;57.05;54.30;;;13.70;99.90;;;;;;5071120;28;20454;-78
2024/03/17 04:24:44;;;;;;;31.77;30.27;;;13.90;99.90;;;;;;5067462;28;20037;-79
2024/03/17 04:27:10;;;;;;;32.92;31.42;;;14.00;99.90;;;;;;5068641;28;20406;-79
2024/03/17 04:29:36;;;;;;;34.58;32.95;;;14.10;99.90;;;;;;5053360;28;20493;-78
2024/03/17 04:32:04;;;;;;;35.10;33.42;;;14.10;99.90;;;;;;5036997;28;20042;-79
2024/03/17 04:34:31;;;;;;;20.95;19.95;;;14.10;99.90;;;;;;5048799;28;20048;-79
2024/03/17 04:36:57;;;;;;;22.27;21.27;;;14.20;99.90;;;;;;5048462;28;20037;-79
2024/03/17 04:39:24;;;;;;;23.90;22.80;;;14.30;99.90;;;;;;5042440;28;20037;-79
2024/03/17 04:41:50;;;;;;;19.92;19.02;;;14.40;99.90;;;;;;5056151;28;20037;-79
2024/03/17 04:44:17;;;;;;;23.63;22.52;;;14.50;99.90;;;;;;5051955;28;20045;-79
2024/03/17 04:46:43;;;;;;;23.95;22.85;;;14.50;99.90;;;;;;5051686;28;20036;-79
2024/03/17 04:49:09;;;;;;;21.55;20.55;;;14.60;99.90;;;;;;5052980;28;20063;-79
2024/03/17 04:51:36;;;;;;;26.10;24.90;;;14.60;99.90;;;;;;5052678;28;20039;-79
2024/03/17 04:54:03;;;;;;;30.05;28.65;;;14.60;99.90;;;;;;5067636;28;20040;-79
2024/03/17 04:56:29;;;;;;;25.95;24.75;;;14.70;99.90;;;;;;5052653;28;20474;-79
2024/03/17 04:58:55;;;;;;;32.95;31.42;;;14.60;99.90;;;;;;5068322;28;20036;-79
2024/03/17 05:01:22;;;;;;;22.67;21.65;;;14.70;99.90;;;;;;5052044;28;20045;-79
2024/03/17 05:03:50;;;;;;;30.40;28.98;;;14.60;99.90;;;;;;5052698;28;20025;-79
2024/03/17 05:06:16;;;;;;;21.45;20.45;;;14.60;99.90;;;;;;5051741;28;20041;-78
2024/03/17 05:08:43;;;;;;;28.52;27.23;;;14.60;99.90;;;;;;5052055;28;20060;-78
2024/03/17 05:11:09;;;;;;;27.33;26.02;;;14.60;99.90;;;;;;5051749;28;20052;-79
2024/03/17 05:13:36;;;;;;;22.95;21.85;;;14.60;99.90;;;;;;5052696;28;20028;-79
2024/03/17 05:16:03;;;;;;;26.00;24.80;;;14.60;99.90;;;;;;5068702;28;20033;-79
2024/03/17 05:18:32;;;;;;;22.15;21.15;;;14.40;99.90;;;;;;5072890;28;20366;-79
2024/03/17 05:20:59;;;;;;;22.90;21.83;;;14.40;99.90;;;;;;5066083;28;20037;-78
2024/03/17 05:23:27;;;;;;;17.80;16.98;;;14.40;99.90;;;;;;5067410;28;20398;-79
2024/03/17 05:25:54;;;;;;;18.63;17.73;;;14.40;99.90;;;;;;5067328;28;20064;-79
2024/03/17 05:28:21;;;;;;;22.48;21.48;;;14.50;99.90;;;;;;5067853;28;20367;-79
2024/03/17 05:30:48;;;;;;;23.23;22.13;;;14.50;99.90;;;;;;5051422;28;20067;-79
2024/03/17 05:33:14;;;;;;;30.15;28.73;;;14.50;99.90;;;;;;5052437;28;20493;-79
2024/03/17 05:35:40;;;;;;;29.05;27.67;;;14.40;99.90;;;;;;5051432;28;20035;-79
2024/03/17 05:38:10;;;;;;;21.30;20.30;;;14.20;99.90;;;;;;5051606;28;20036;-79
2024/03/17 05:40:41;;;;;;;36.75;35.05;;;14.10;99.90;;;;;;5051762;28;20053;-79
2024/03/17 05:43:07;;;;;;;26.52;25.33;;;14.10;99.90;;;;;;5052145;28;20104;-79
2024/03/17 05:45:33;;;;;;;26.38;25.17;;;14.30;99.90;;;;;;5050833;28;20029;-79
2024/03/17 05:47:59;;;;;;;19.17;18.27;;;14.40;99.90;;;;;;5051956;28;20028;-80
2024/03/17 05:50:27;;;;;;;28.55;27.23;;;14.50;99.90;;;;;;5051687;28;20060;-78
2024/03/17 05:52:53;;;;;;;37.63;35.88;;;14.60;99.90;;;;;;5052137;28;20517;-78
2024/03/17 05:55:19;;;;;;;46.25;44.10;;;14.60;99.90;;;;;;5051974;28;20033;-77
2024/03/17 05:57:45;;;;;;;23.33;22.23;;;14.50;99.90;;;;;;5051891;28;20489;-77
2024/03/17 06:00:15;;;;;;;26.58;25.33;;;14.40;99.90;;;;;;5051643;28;20036;-77
2024/03/17 06:02:41;;;;;;;36.22;34.33;;;14.00;99.90;;;;;;5051438;28;20032;-77
2024/03/17 06:05:10;;;;;;;24.00;22.65;;;13.90;99.90;;;;;;5067153;28;20040;-77
2024/03/17 06:07:36;;;;;;;28.05;26.65;;;13.80;99.90;;;;;;5052394;28;20033;-72
2024/03/17 06:10:02;;;;;;;24.85;23.70;;;13.80;99.90;;;;;;5051691;28;20362;-72
2024/03/17 06:12:28;;;;;;;27.17;25.88;;;13.90;99.90;;;;;;5051836;28;20036;-72
2024/03/17 06:14:54;;;;;;;26.77;24.90;;;13.90;99.90;;;;;;5052041;28;20033;-72
2024/03/17 06:17:20;;;;;;;22.17;21.15;;;14.00;99.90;;;;;;5050987;28;20037;-72
2024/03/17 06:19:46;;;;;;;22.42;21.40;;;13.90;99.90;;;;;;5051980;28;20036;-72
2024/03/17 06:22:12;;;;;;;22.48;21.42;;;14.00;99.90;;;;;;5054166;28;20037;-72
2024/03/17 06:24:38;;;;;;;24.38;23.25;;;14.10;99.90;;;;;;5071294;28;20036;-72
2024/03/17 06:27:04;;;;;;;26.05;24.85;;;14.10;99.90;;;;;;5055614;28;20025;-71
2024/03/17 06:29:33;;;;;;;27.50;26.23;;;14.20;99.90;;;;;;5056211;28;20053;-72
2024/03/17 06:31:59;;;;;;;30.27;28.85;;;14.30;99.90;;;;;;5055153;28;20485;-72
2024/03/17 06:34:26;;;;;;;35.30;33.63;;;14.40;99.90;;;;;;5055740;28;20025;-72
2024/03/17 06:36:52;;;;;;;30.00;28.60;;;14.40;99.90;;;;;;5055108;28;20025;-72
2024/03/17 06:39:21;;;;;;;46.53;44.30;;;14.40;99.90;;;;;;5055641;28;20029;-72
2024/03/17 06:41:47;;;;;;;52.70;50.20;;;14.50;99.90;;;;;;5055371;28;20469;-72
2024/03/17 06:44:13;;;;;;;24.38;23.23;;;14.50;99.90;;;;;;5055631;28;20120;-72
2024/03/17 06:46:39;;;;;;;42.17;40.05;;;14.40;99.90;;;;;;5054417;28;20741;-72
2024/03/17 06:49:05;;;;;;;29.98;28.52;;;14.30;99.90;;;;;;5055206;28;20037;-71
2024/03/17 06:51:31;;;;;;;24.88;23.73;;;14.40;99.90;;;;;;5055425;28;20481;-71
2024/03/17 06:53:58;;;;;;;44.63;42.53;;;14.30;99.90;;;;;;5054910;28;20028;-72
2024/03/17 06:56:25;;;;;;;33.38;31.75;;;14.30;99.90;;;;;;5054424;28;20072;-72
2024/03/17 06:58:52;;;;;;;26.25;25.00;;;14.40;99.90;;;;;;5069880;28;20508;-72
2024/03/17 07:01:19;;;;;;;25.92;24.73;;;14.50;99.90;;;;;;5054085;28;20033;-72
2024/03/17 07:03:45;;;;;;;30.88;29.42;;;14.60;99.90;;;;;;5054180;28;20041;-72
2024/03/17 07:06:11;;;;;;;28.85;27.50;;;14.60;99.90;;;;;;5070112;28;20029;-72
2024/03/17 07:08:37;;;;;;;27.70;26.40;;;14.70;99.90;;;;;;5054580;28;20037;-73
2024/03/17 07:11:05;;;;;;;44.30;42.20;;;14.70;99.90;;;;;;5050956;28;20382;-72
2024/03/17 07:13:38;;;;;;;39.35;37.50;;;14.80;99.90;;;;;;5072849;28;20017;-72
2024/03/17 07:16:08;;;;;;;30.98;29.52;;;14.80;99.90;;;;;;5059199;28;20037;-80
2024/03/17 07:18:34;;;;;;;76.50;72.88;;;14.80;99.90;;;;;;5054042;28;20033;-77
2024/03/17 07:21:03;;;;;;;83.10;79.15;;;14.80;99.90;;;;;;5054441;28;20381;-77
2024/03/17 07:23:30;;;;;;;129.75;123.45;;;14.90;99.90;;;;;;5069300;28;20033;-79
2024/03/17 07:25:57;;;;;;;111.43;106.10;;;14.90;99.90;;;;;;5044553;28;20049;-78
2024/03/17 07:28:24;;;;;;;24.98;23.58;;;14.90;99.90;;;;;;5054382;28;20053;-79
2024/03/17 07:30:57;;;;;;;44.58;42.47;;;14.70;99.90;;;;;;5054246;28;20502;-78
2024/03/17 07:33:23;;;;;;;40.28;38.38;;;14.40;99.90;;;;;;5053422;28;20036;-77
2024/03/17 07:35:54;;;;;;;42.03;40.03;;;14.50;99.90;;;;;;5053716;28;20033;-78
2024/03/17 07:38:21;;;;;;;25.77;24.58;;;14.50;99.90;;;;;;5054453;28;20512;-77
2024/03/17 07:40:58;;;;;;;32.72;31.20;;;14.60;99.90;;;;;;5054279;28;20033;-77
2024/03/17 07:43:25;;;;;;;44.22;42.13;;;14.50;99.90;;;;;;5060158;28;20048;-80
2024/03/17 07:46:04;;;;;;;39.47;37.63;;;14.50;99.90;;;;;;5068988;28;20056;-80
2024/03/17 07:48:31;;;;;;;45.55;43.30;;;14.60;99.90;;;;;;5053855;28;20036;-80
2024/03/17 07:51:03;;;;;;;33.20;31.60;;;14.50;99.90;;;;;;5053503;28;20037;-79
2024/03/17 07:53:30;;;;;;;42.72;39.97;;;14.30;99.90;;;;;;5066159;28;20485;-79
2024/03/17 07:56:06;;;;;;;33.42;31.88;;;14.50;99.90;;;;;;5066931;28;20048;-79
2024/03/17 07:58:33;;;;;;;46.88;44.67;;;14.70;99.90;;;;;;5048169;28;20037;-79
2024/03/17 08:01:09;;;;;;;38.20;36.40;;;14.80;99.90;;;;;;5039911;28;20037;-79
2024/03/17 08:03:37;;;;;;;58.45;55.67;;;14.80;99.90;;;;;;5053381;28;20025;-80
2024/03/17 08:06:04;;;;;;;72.95;69.47;;;14.80;99.90;;;;;;5068801;28;20032;-78
2024/03/17 08:08:31;;;;;;;45.50;43.38;;;14.90;99.90;;;;;;5054024;28;20037;-79
2024/03/17 08:10:57;;;;;;;47.40;45.15;;;14.80;99.90;;;;;;5068880;28;20056;-78
2024/03/17 08:13:23;;;;;;;50.90;48.50;;;14.80;99.90;;;;;;5059485;28;20029;-79
2024/03/17 08:15:57;;;;;;;32.20;30.70;;;14.60;99.90;;;;;;5076474;28;20040;-79
2024/03/17 08:18:23;;;;;;;35.28;33.53;;;14.60;99.90;;;;;;5068708;28;20049;-79
2024/03/17 08:20:49;;;;;;;48.40;46.05;;;14.50;99.90;;;;;;5068837;28;20385;-79
2024/03/17 08:23:16;;;;;;;52.92;50.42;;;14.30;99.90;;;;;;5054765;28;20061;-79
2024/03/17 08:25:42;;;;;;;57.15;54.38;;;14.30;99.90;;;;;;5052829;28;20040;-79
2024/03/17 08:28:08;;;;;;;68.95;65.63;;;14.30;99.90;;;;;;5071706;28;20377;-75
2024/03/17 08:30:34;;;;;;;95.72;91.15;;;14.30;99.90;;;;;;5084606;28;20029;-80
2024/03/17 08:33:00;;;;;;;58.15;55.30;;;14.30;99.90;;;;;;5052503;28;20032;-75
2024/03/17 08:35:26;;;;;;;75.93;72.30;;;14.30;99.90;;;;;;5035761;28;20037;-77
2024/03/17 08:37:56;;;;;;;44.75;42.63;;;14.60;99.90;;;;;;5053352;28;20385;-77
2024/03/17 08:40:22;;;;;;;40.78;38.78;;;14.50;99.90;;;;;;5055322;28;20021;-77
2024/03/17 08:42:49;;;;;;;29.70;28.20;;;14.60;99.90;;;;;;5051734;28;20366;-80
2024/03/17 08:45:16;;;;;;;34.28;32.60;;;14.40;99.90;;;;;;5052425;28;20029;-78
2024/03/17 08:47:42;;;;;;;29.25;27.83;;;14.30;99.90;;;;;;5059679;28;20413;-79
2024/03/17 08:50:09;;;;;;;40.38;38.42;;;14.30;99.90;;;;;;5066795;28;20052;-78
2024/03/17 08:52:35;;;;;;;55.17;52.50;;;14.40;99.90;;;;;;5068036;28;20043;-78
2024/03/17 08:55:03;;;;;;;34.95;33.20;;;14.30;99.90;;;;;;5073002;28;20037;-78
2024/03/17 08:57:29;;;;;;;59.78;56.83;;;14.20;99.90;;;;;;5053485;28;20029;-78
2024/03/17 08:59:56;;;;;;;49.38;46.42;;;14.10;99.90;;;;;;5056659;28;20033;-79
2024/03/17 09:02:22;;;;;;;32.58;31.00;;;14.00;99.90;;;;;;5053813;28;20039;-78
2024/03/17 09:04:48;;;;;;;29.00;27.58;;;14.00;99.90;;;;;;5068272;28;20037;-79
2024/03/17 09:07:17;;;;;;;38.83;36.75;;;14.10;99.90;;;;;;5040488;28;20045;-78
2024/03/17 09:09:43;;;;;;;37.72;35.95;;;14.10;99.90;;;;;;5076050;28;20032;-78
2024/03/17 09:12:09;;;;;;;87.25;83.10;;;14.10;99.90;;;;;;5055996;28;20048;-78
2024/03/17 09:14:35;;;;;;;29.30;27.80;;;14.30;99.90;;;;;;5051693;28;20025;-78
2024/03/17 09:17:01;;;;;;;25.52;24.17;;;14.50;99.90;;;;;;5051185;28;20037;-78
2024/03/17 09:19:29;;;;;;;47.17;44.90;;;14.70;99.90;;;;;;5051743;28;20029;-81
2024/03/17 09:21:55;;;;;;;61.83;58.90;;;14.80;99.90;;;;;;5052848;28;20049;-78
2024/03/17 09:24:21;;;;;;;76.32;72.72;;;14.90;99.90;;;;;;5052341;28;20029;-78
2024/03/17 09:26:48;;;;;;;46.13;43.92;;;15.00;99.90;;;;;;5052514;28;20049;-78
2024/03/17 09:29:17;;;;;;;46.33;44.15;;;15.10;99.90;;;;;;5051893;28;20045;-78
2024/03/17 09:31:43;;;;;;;28.33;27.00;;;15.10;99.90;;;;;;5051184;28;20405;-79
2024/03/17 09:34:09;;;;;;;43.38;41.33;;;15.20;99.90;;;;;;5051979;28;20040;-79
2024/03/17 09:36:35;;;;;;;47.55;45.25;;;15.30;99.90;;;;;;5051880;28;20055;-78
2024/03/17 09:39:04;;;;;;;53.22;50.60;;;15.30;99.90;;;;;;5052088;28;20036;-78
2024/03/17 09:41:30;;;;;;;36.60;34.85;;;15.40;99.90;;;;;;5052337;28;20063;-79
2024/03/17 09:43:57;;;;;;;39.78;37.88;;;15.40;99.90;;;;;;5051424;28;20037;-79
2024/03/17 09:46:24;;;;;;;33.60;31.83;;;15.50;99.90;;;;;;5051215;28;20387;-78
2024/03/17 09:48:50;;;;;;;41.15;39.15;;;15.40;99.90;;;;;;5051424;28;20029;-79
2024/03/17 09:51:23;;;;;;;46.65;44.00;;;15.40;99.90;;;;;;5054692;28;20504;-79
2024/03/17 09:53:50;;;;;;;54.05;51.35;;;15.50;99.90;;;;;;5071066;28;20021;-79
2024/03/17 09:56:18;;;;;;;32.15;30.58;;;15.40;99.90;;;;;;5052135;28;20507;-80
2024/03/17 09:58:45;;;;;;;36.15;34.45;;;15.60;99.90;;;;;;5051009;28;20048;-80
2024/03/17 10:01:11;;;;;;;24.60;23.48;;;15.50;99.90;;;;;;5049623;28;20056;-80
2024/03/17 10:03:51;;;;;;;51.22;48.83;;;15.60;99.90;;;;;;5051498;28;20036;-78
2024/03/17 10:06:19;;;;;;;30.98;29.52;;;15.70;99.90;;;;;;5051466;28;20033;-79
2024/03/17 10:08:46;;;;;;;67.88;64.65;;;15.70;99.90;;;;;;5051671;28;20021;-80
2024/03/17 10:11:13;;;;;;;29.52;28.13;;;15.50;99.90;;;;;;5077626;28;20041;-80
2024/03/17 10:13:40;;;;;;;28.77;27.42;;;15.50;99.90;;;;;;5051175;28;20067;-71
2024/03/17 10:16:06;;;;;;;29.80;28.40;;;15.70;99.90;;;;;;5054400;28;20041;-72
2024/03/17 10:18:32;;;;;;;28.23;26.92;;;15.80;99.90;;;;;;5051466;28;20509;-72
2024/03/17 10:20:59;;;;;;;22.23;21.23;;;15.90;99.90;;;;;;5054625;28;20036;-72
2024/03/17 10:23:25;;;;;;;73.20;69.72;;;16.00;99.90;;;;;;5051014;28;20037;-72
2024/03/17 10:25:51;;;;;;;70.07;66.72;;;16.10;99.90;;;;;;5050724;28;20414;-72
2024/03/17 10:28:18;;;;;;;42.42;40.42;;;16.40;99.90;;;;;;5051525;28;20029;-72
2024/03/17 10:31:00;;;;;;;40.63;38.70;;;16.60;99.90;;;;;;5049013;28;20041;-71
2024/03/17 10:33:29;;;;;;;33.92;32.33;;;16.80;99.90;;;;;;5042785;28;20049;-72
2024/03/17 10:36:02;;;;;;;52.67;50.17;;;17.00;99.90;;;;;;5051086;28;20051;-72
2024/03/17 10:38:28;;;;;;;104.45;99.53;;;17.00;99.90;;;;;;5050854;28;20041;-71
2024/03/17 10:40:55;;;;;;;64.00;60.97;;;17.00;99.90;;;;;;5051234;28;20378;-72
2024/03/17 10:43:24;;;;;;;32.22;30.73;;;17.00;99.90;;;;;;5065687;28;20401;-72
2024/03/17 10:45:54;;;;;;;32.95;31.35;;;17.10;99.90;;;;;;5065168;28;20028;-72
2024/03/17 10:48:23;;;;;;;31.27;29.75;;;17.10;99.90;;;;;;5065769;28;20036;-71
2024/03/17 10:50:50;;;;;;;35.05;33.35;;;17.10;99.90;;;;;;5048776;28;20068;-71
2024/03/17 10:53:19;;;;;;;31.25;29.77;;;17.20;99.90;;;;;;5063315;28;20025;-71
2024/03/17 10:55:47;;;;;;;37.20;35.40;;;17.20;99.90;;;;;;5064761;28;20056;-71
2024/03/17 10:58:31;;;;;;;34.33;32.72;;;17.20;99.90;;;;;;5065387;28;20048;-71
2024/03/17 11:00:57;;;;;;;41.88;39.88;;;17.40;99.90;;;;;;5048826;28;20045;-71
2024/03/17 11:03:23;;;;;;;34.78;33.15;;;17.50;99.90;;;;;;5065421;28;20033;-71
2024/03/17 11:05:51;;;;;;;30.13;28.52;;;17.50;99.90;;;;;;5066122;28;20036;-72
2024/03/17 11:08:17;;;;;;;26.25;25.05;;;17.70;99.90;;;;;;5067941;28;20025;-71
2024/03/17 11:10:49;;;;;;;24.02;22.92;;;17.80;99.90;;;;;;5053655;28;20033;-71
2024/03/17 11:13:26;;;;;;;58.78;56.00;;;18.00;99.90;;;;;;5054029;28;20021;-71
2024/03/17 11:15:58;;;;;;;89.63;85.38;;;18.20;99.90;;;;;;5069505;28;20049;-80
2024/03/17 11:18:24;;;;;;;125.57;119.53;;;18.30;99.90;;;;;;5054537;28;20041;-80
2024/03/17 11:21:01;;;;;;;160.13;152.32;;;18.30;99.90;;;;;;5053861;28;20021;-80
2024/03/17 11:23:28;;;;;;;69.95;66.60;;;18.40;99.90;;;;;;5053441;28;20029;-80
2024/03/17 11:25:55;;;;;;;72.40;68.93;;;18.60;99.90;;;;;;5053280;28;20021;-80
2024/03/17 11:28:51;;;;;;;73.28;69.68;;;18.60;99.90;;;;;;5054476;28;20414;-80
2024/03/17 11:31:42;;;;;;;90.63;86.18;;;18.60;99.90;;;;;;5055993;28;20088;-81
2024/03/17 11:34:26;;;;;;;;;;;18.50;99.90;;;;;;5054219;28;20037;-81
2024/03/17 11:36:56;;;;;;;336.70;319.10;;;18.50;99.90;;;;;;5052956;28;19915;-82
2024/03/17 11:39:51;;;;;;;372.50;352.23;;;18.50;99.90;;;;;;5049796;28;20068;-82
2024/03/17 11:42:17;;;;;;;279.83;265.15;;;18.50;99.90;;;;;;5051285;28;20033;-82
2024/03/17 11:44:45;;;;;;;206.95;196.23;;;18.60;99.90;;;;;;5057565;28;20045;-82
2024/03/17 11:47:11;;;;;;;164.68;156.30;;;18.70;99.90;;;;;;5053516;28;20402;-82
2024/03/17 11:49:43;;;;;;;81.93;77.93;;;18.60;99.90;;;;;;5053678;28;20036;-81
2024/03/17 11:52:16;;;;;;;68.88;65.50;;;18.80;99.90;;;;;;5078338;28;20055;-82
2024/03/17 11:54:46;;;;;;;45.08;42.95;;;18.80;99.90;;;;;;5052108;28;20044;-82
2024/03/17 11:57:13;;;;;;;49.50;47.10;;;18.80;99.90;;;;;;5068265;28;20032;-84
2024/03/17 11:59:40;;;;;;;33.25;31.58;;;18.80;99.90;;;;;;5068595;28;20037;-83
2024/03/17 12:02:23;;;;;;;37.85;36.05;;;19.00;99.90;;;;;;5067923;28;20037;-83
2024/03/17 12:04:49;;;;;;;33.05;31.50;;;19.00;99.90;;;;;;5067279;28;20512;-83
2024/03/17 12:07:17;;;;;;;31.52;30.05;;;19.10;99.90;;;;;;5052924;28;20401;-83
2024/03/17 12:09:45;;;;;;;30.90;29.48;;;19.10;99.90;;;;;;5052654;28;20029;-82
2024/03/17 12:12:19;;;;;;;43.63;41.58;;;19.30;99.90;;;;;;5068343;28;20056;-82
2024/03/17 12:14:46;;;;;;;1999.90;999.90;;;19.40;99.90;;;;;;5052874;28;20045;-83
2024/03/17 12:17:16;;;;;;;1999.90;999.90;;;19.30;99.90;;;;;;5051517;28;20059;-83
2024/03/17 12:19:44;;;;;;;1999.90;999.90;;;19.40;99.90;;;;;;5068115;28;20030;-83
2024/03/17 12:22:15;;;;;;;1999.90;999.90;;;19.30;99.90;;;;;;5067544;28;20082;-83
2024/03/17 12:24:42;;;;;;;1999.90;999.90;;;19.30;99.90;;;;;;5067664;28;20025;-84
2024/03/17 12:27:08;;;;;;;1999.90;999.90;;;19.20;99.90;;;;;;5068160;28;20025;-83
2024/03/17 12:29:36;;;;;;;1999.90;999.90;;;19.20;99.90;;;;;;5068140;28;20100;-83
2024/03/17 12:32:06;;;;;;;1999.90;999.90;;;19.30;99.90;;;;;;5052117;28;20047;-83